createdAt,value
2019-03-29T00:00:01.545Z,68.26
2019-03-29T00:01:01.499Z,68.40
2019-03-29T00:02:01.508Z,68.64
2019-03-29T00:03:01.527Z,68.84
2019-03-29T00:04:01.479Z,68.87
2019-03-29T00:05:01.485Z,68.97
2019-03-29T00:06:01.578Z,69.11
2019-03-29T00:07:01.503Z,69.01
2019-03-29T00:08:01.515Z,69.12
2019-03-29T00:09:02.103Z,68.94
2019-03-29T00:10:01.486Z,68.89
2019-03-29T00:11:01.533Z,68.87
2019-03-29T00:12:01.546Z,69.08
2019-03-29T00:13:01.538Z,69.09
2019-03-29T00:14:01.515Z,69.46
2019-03-29T00:15:01.538Z,69.64
2019-03-29T00:16:01.514Z,69.49
2019-03-29T00:17:01.502Z,69.35
2019-03-29T00:18:01.557Z,69.10
2019-03-29T00:19:02.062Z,69.06
2019-03-29T00:20:01.521Z,68.95
2019-03-29T00:21:01.530Z,68.96
2019-03-29T00:22:01.510Z,68.62
2019-03-29T00:23:01.548Z,68.48
2019-03-29T00:24:06.918Z,68.01
2019-03-29T00:25:01.523Z,68.29
2019-03-29T00:26:01.512Z,68.97
2019-03-29T00:27:01.546Z,69.38
2019-03-29T00:28:01.527Z,69.53
2019-03-29T00:29:01.498Z,69.93
2019-03-29T00:30:01.607Z,69.98
2019-03-29T00:31:01.535Z,70.03
2019-03-29T00:32:01.540Z,69.83
2019-03-29T00:33:01.598Z,69.90
2019-03-29T00:34:01.500Z,70.24
2019-03-29T00:35:01.557Z,70.39
2019-03-29T00:36:01.559Z,70.71
2019-03-29T00:37:01.537Z,70.53
2019-03-29T00:38:01.527Z,70.77
2019-03-29T00:39:01.547Z,70.22
2019-03-29T00:40:01.527Z,70.27
2019-03-29T00:41:01.536Z,70.66
2019-03-29T00:42:01.534Z,71.02
2019-03-29T00:43:01.545Z,71.18
2019-03-29T00:44:01.521Z,71.36
2019-03-29T00:45:01.570Z,70.98
2019-03-29T00:46:01.534Z,70.87
2019-03-29T00:47:01.558Z,71.13
2019-03-29T00:48:01.567Z,71.58
2019-03-29T00:49:01.532Z,72.11
2019-03-29T00:50:01.539Z,72.31
2019-03-29T00:51:01.557Z,72.24
2019-03-29T00:52:01.510Z,71.95
2019-03-29T00:53:01.534Z,71.94
2019-03-29T00:54:02.090Z,72.46
2019-03-29T00:55:01.539Z,72.78
2019-03-29T00:56:01.543Z,72.67
2019-03-29T00:57:01.581Z,72.51
2019-03-29T00:58:01.546Z,72.02
2019-03-29T00:59:01.573Z,71.94
2019-03-29T01:00:01.581Z,71.76
2019-03-29T01:01:01.536Z,71.81
2019-03-29T01:02:01.546Z,71.74
2019-03-29T01:03:01.583Z,72.42
2019-03-29T01:04:02.960Z,72.85
2019-03-29T01:05:01.553Z,73.26
2019-03-29T01:06:01.646Z,73.03
2019-03-29T01:07:01.543Z,72.98
2019-03-29T01:08:07.644Z,72.98
2019-03-29T01:09:01.585Z,72.78
2019-03-29T01:10:01.549Z,72.99
2019-03-29T01:11:01.582Z,73.30
2019-03-29T01:12:01.573Z,73.68
2019-03-29T01:13:01.532Z,73.86
2019-03-29T01:14:01.566Z,73.82
2019-03-29T01:15:01.556Z,73.99
2019-03-29T01:16:01.846Z,74.30
2019-03-29T01:17:01.563Z,74.00
2019-03-29T01:18:01.604Z,73.61
2019-03-29T01:19:01.554Z,74.15
2019-03-29T01:20:01.563Z,74.09
2019-03-29T01:21:01.615Z,74.18
2019-03-29T01:22:01.533Z,74.27
2019-03-29T01:23:01.587Z,74.37
2019-03-29T01:24:01.576Z,74.67
2019-03-29T01:25:01.566Z,74.80
2019-03-29T01:26:01.554Z,74.46
2019-03-29T01:27:01.577Z,74.34
2019-03-29T01:28:01.557Z,74.45
2019-03-29T01:29:01.582Z,74.30
2019-03-29T01:30:01.586Z,74.46
2019-03-29T01:31:01.540Z,74.27
2019-03-29T01:32:01.542Z,74.11
2019-03-29T01:33:01.592Z,74.02
2019-03-29T01:34:01.570Z,74.08
2019-03-29T01:35:01.578Z,73.91
2019-03-29T01:36:02.061Z,74.03
2019-03-29T01:37:01.550Z,74.05
2019-03-29T01:38:01.540Z,74.23
2019-03-29T01:39:01.579Z,74.26
2019-03-29T01:40:01.564Z,74.47
2019-03-29T01:41:01.621Z,74.27
2019-03-29T01:42:01.595Z,74.47
2019-03-29T01:43:01.571Z,74.45
2019-03-29T01:44:02.012Z,74.72
2019-03-29T01:45:01.595Z,74.75
2019-03-29T01:46:01.590Z,74.99
2019-03-29T01:47:01.561Z,75.11
2019-03-29T01:48:01.583Z,75.14
2019-03-29T01:49:01.568Z,75.29
2019-03-29T01:50:01.563Z,75.17
2019-03-29T01:51:02.040Z,75.46
2019-03-29T01:52:01.596Z,75.32
2019-03-29T01:53:01.602Z,75.28
2019-03-29T01:54:01.607Z,75.19
2019-03-29T01:55:01.585Z,75.26
2019-03-29T01:56:01.609Z,75.26
2019-03-29T01:57:01.618Z,75.28
2019-03-29T01:58:01.573Z,75.59
2019-03-29T01:59:01.604Z,75.65
2019-03-29T02:00:01.646Z,75.73
2019-03-29T02:01:02.318Z,75.96
2019-03-29T02:02:01.607Z,75.95
2019-03-29T02:03:01.620Z,75.82
2019-03-29T02:04:01.580Z,75.67
2019-03-29T02:05:01.625Z,75.89
2019-03-29T02:06:01.627Z,75.74
2019-03-29T02:07:01.596Z,76.06
2019-03-29T02:08:01.590Z,76.20
2019-03-29T02:09:01.625Z,76.24
2019-03-29T02:10:01.601Z,76.17
2019-03-29T02:11:01.605Z,76.03
2019-03-29T02:12:01.667Z,76.43
2019-03-29T02:13:01.581Z,76.17
2019-03-29T02:14:01.590Z,76.26
2019-03-29T02:15:01.608Z,76.22
2019-03-29T02:16:01.670Z,76.51
2019-03-29T02:17:01.621Z,76.41
2019-03-29T02:18:01.605Z,76.27
2019-03-29T02:19:01.577Z,76.24
2019-03-29T02:20:01.609Z,76.25
2019-03-29T02:21:01.614Z,76.52
2019-03-29T02:22:01.596Z,76.29
2019-03-29T02:23:01.586Z,76.26
2019-03-29T02:24:01.666Z,76.50
2019-03-29T02:25:01.586Z,76.36
2019-03-29T02:26:01.617Z,76.35
2019-03-29T02:27:01.619Z,76.42
2019-03-29T02:28:01.596Z,76.34
2019-03-29T02:29:01.573Z,76.56
2019-03-29T02:30:04.350Z,76.55
2019-03-29T02:31:01.629Z,76.78
2019-03-29T02:32:01.619Z,76.64
2019-03-29T02:33:01.638Z,76.66
2019-03-29T02:34:01.614Z,76.63
2019-03-29T02:35:01.652Z,76.79
2019-03-29T02:36:01.698Z,76.60
2019-03-29T02:37:02.310Z,76.68
2019-03-29T02:38:01.689Z,76.82
2019-03-29T02:39:01.715Z,76.90
2019-03-29T02:40:01.701Z,76.83
2019-03-29T02:41:01.719Z,76.86
2019-03-29T02:42:01.759Z,76.77
2019-03-29T02:43:01.734Z,76.67
2019-03-29T02:44:01.733Z,76.82
2019-03-29T02:45:03.330Z,76.83
2019-03-29T02:46:01.753Z,76.79
2019-03-29T02:47:01.831Z,76.85
2019-03-29T02:48:01.875Z,76.85
2019-03-29T02:49:01.816Z,76.91
2019-03-29T02:50:01.841Z,77.00
2019-03-29T02:51:01.845Z,76.94
2019-03-29T02:52:01.830Z,77.03
2019-03-29T02:53:01.881Z,76.94
2019-03-29T02:54:01.954Z,76.91
2019-03-29T02:55:01.870Z,77.01
2019-03-29T02:56:01.900Z,76.95
2019-03-29T02:57:01.961Z,76.96
2019-03-29T02:58:01.932Z,77.13
2019-03-29T02:59:01.926Z,77.18
2019-03-29T03:00:01.967Z,77.13
2019-03-29T03:01:01.951Z,77.12
2019-03-29T03:02:01.923Z,77.16
2019-03-29T03:03:02.009Z,77.22
2019-03-29T03:04:01.983Z,77.14
2019-03-29T03:05:01.972Z,77.17
2019-03-29T03:06:02.046Z,77.36
2019-03-29T03:07:02.034Z,77.29
2019-03-29T03:08:02.048Z,77.22
2019-03-29T03:09:13.017Z,77.24
2019-03-29T03:10:02.043Z,77.26
2019-03-29T03:11:02.049Z,77.39
2019-03-29T03:12:02.066Z,77.22
2019-03-29T03:13:02.029Z,77.39
2019-03-29T03:14:02.041Z,77.27
2019-03-29T03:15:02.077Z,77.48
2019-03-29T03:16:02.062Z,77.38
2019-03-29T03:17:02.191Z,77.28
2019-03-29T03:18:02.048Z,77.30
2019-03-29T03:19:02.041Z,77.37
2019-03-29T03:20:02.021Z,77.40
2019-03-29T03:21:02.092Z,77.34
2019-03-29T03:22:02.040Z,77.38
2019-03-29T03:23:02.072Z,77.39
2019-03-29T03:24:02.115Z,77.22
2019-03-29T03:25:02.020Z,77.29
2019-03-29T03:26:02.040Z,77.34
2019-03-29T03:27:02.087Z,77.54
2019-03-29T03:28:02.063Z,77.47
2019-03-29T03:29:02.063Z,77.42
2019-03-29T03:30:02.079Z,77.44
2019-03-29T03:31:02.038Z,77.43
2019-03-29T03:32:02.047Z,77.48
2019-03-29T03:33:02.137Z,77.43
2019-03-29T03:34:02.069Z,77.49
2019-03-29T03:35:02.055Z,77.48
2019-03-29T03:36:02.097Z,77.48
2019-03-29T03:37:02.047Z,77.59
2019-03-29T03:38:02.118Z,77.64
2019-03-29T03:39:02.115Z,77.56
2019-03-29T03:40:02.067Z,77.63
2019-03-29T03:41:02.080Z,77.53
2019-03-29T03:42:02.099Z,77.44
2019-03-29T03:43:02.057Z,77.49
2019-03-29T03:44:02.079Z,77.46
2019-03-29T03:45:02.103Z,77.68
2019-03-29T03:46:02.029Z,77.63
2019-03-29T03:47:02.076Z,77.67
2019-03-29T03:48:02.097Z,77.61
2019-03-29T03:49:02.083Z,77.55
2019-03-29T03:50:02.176Z,77.67
2019-03-29T03:51:02.073Z,77.68
2019-03-29T03:52:02.048Z,77.73
2019-03-29T03:53:02.071Z,77.62
2019-03-29T03:54:02.131Z,77.64
2019-03-29T03:55:02.080Z,77.62
2019-03-29T03:56:02.096Z,77.72
2019-03-29T03:57:02.086Z,77.81
2019-03-29T03:58:02.075Z,77.69
2019-03-29T03:59:02.068Z,77.62
2019-03-29T04:00:02.108Z,77.63
2019-03-29T04:01:02.067Z,77.76
2019-03-29T04:02:02.114Z,77.64
2019-03-29T04:03:02.086Z,77.74
2019-03-29T04:04:02.058Z,77.77
2019-03-29T04:05:02.091Z,77.80
2019-03-29T04:06:02.107Z,77.65
2019-03-29T04:07:02.066Z,77.79
2019-03-29T04:08:02.075Z,77.74
2019-03-29T04:09:02.096Z,77.62
2019-03-29T04:10:02.082Z,77.74
2019-03-29T04:11:02.071Z,77.77
2019-03-29T04:12:02.102Z,77.77
2019-03-29T04:13:02.067Z,77.82
2019-03-29T04:14:02.077Z,77.77
2019-03-29T04:15:02.177Z,77.83
2019-03-29T04:16:02.096Z,77.91
2019-03-29T04:17:02.085Z,77.82
2019-03-29T04:18:02.123Z,77.86
2019-03-29T04:19:02.065Z,77.82
2019-03-29T04:20:02.100Z,77.87
2019-03-29T04:21:02.153Z,77.93
2019-03-29T04:22:02.081Z,77.72
2019-03-29T04:23:02.096Z,77.92
2019-03-29T04:24:02.124Z,77.80
2019-03-29T04:25:02.100Z,77.79
2019-03-29T04:26:02.099Z,77.79
2019-03-29T04:27:02.111Z,77.73
2019-03-29T04:28:02.062Z,77.75
2019-03-29T04:29:04.611Z,77.82
2019-03-29T04:30:02.110Z,77.71
2019-03-29T04:31:02.063Z,77.59
2019-03-29T04:32:02.134Z,77.69
2019-03-29T04:33:02.178Z,77.80
2019-03-29T04:34:02.056Z,77.80
2019-03-29T04:35:02.109Z,77.75
2019-03-29T04:36:02.125Z,77.73
2019-03-29T04:37:02.115Z,77.67
2019-03-29T04:38:02.130Z,77.88
2019-03-29T04:39:02.095Z,77.88
2019-03-29T04:40:07.963Z,77.81
2019-03-29T04:41:02.120Z,77.71
2019-03-29T04:42:02.226Z,77.96
2019-03-29T04:43:02.087Z,77.76
2019-03-29T04:44:02.151Z,77.81
2019-03-29T04:45:02.146Z,77.70
2019-03-29T04:46:02.106Z,77.71
2019-03-29T04:47:02.130Z,77.83
2019-03-29T04:48:02.124Z,77.73
2019-03-29T04:49:02.100Z,77.67
2019-03-29T04:50:02.126Z,77.72
2019-03-29T04:51:02.102Z,77.79
2019-03-29T04:52:02.107Z,77.77
2019-03-29T04:53:02.094Z,77.64
2019-03-29T04:54:02.117Z,77.73
2019-03-29T04:55:02.112Z,77.60
2019-03-29T04:56:02.160Z,77.70
2019-03-29T04:57:02.127Z,77.79
2019-03-29T04:58:02.095Z,77.75
2019-03-29T04:59:02.152Z,77.80
2019-03-29T05:00:02.145Z,77.75
2019-03-29T05:01:02.103Z,77.76
2019-03-29T05:02:02.121Z,77.83
2019-03-29T05:03:02.152Z,77.79
2019-03-29T05:04:02.097Z,77.87
2019-03-29T05:05:02.108Z,77.91
2019-03-29T05:06:02.123Z,77.69
2019-03-29T05:07:02.121Z,77.64
2019-03-29T05:08:02.106Z,77.67
2019-03-29T05:09:02.129Z,77.86
2019-03-29T05:10:02.102Z,77.78
2019-03-29T05:11:02.132Z,77.77
2019-03-29T05:12:02.127Z,77.88
2019-03-29T05:13:02.101Z,77.80
2019-03-29T05:14:02.139Z,77.86
2019-03-29T05:15:02.131Z,77.75
2019-03-29T05:16:02.115Z,77.82
2019-03-29T05:17:02.099Z,77.73
2019-03-29T05:18:02.149Z,77.79
2019-03-29T05:19:02.127Z,77.77
2019-03-29T05:20:02.143Z,77.94
2019-03-29T05:21:02.134Z,77.70
2019-03-29T05:22:02.113Z,77.76
2019-03-29T05:23:02.126Z,77.93
2019-03-29T05:24:02.170Z,77.92
2019-03-29T05:25:02.142Z,77.86
2019-03-29T05:26:02.148Z,78.08
2019-03-29T05:27:02.141Z,78.07
2019-03-29T05:28:02.103Z,78.07
2019-03-29T05:29:02.088Z,78.03
2019-03-29T05:30:02.133Z,78.09
2019-03-29T05:31:02.128Z,78.10
2019-03-29T05:32:02.149Z,77.86
2019-03-29T05:33:02.155Z,78.05
2019-03-29T05:34:02.113Z,78.21
2019-03-29T05:35:02.140Z,77.90
2019-03-29T05:36:02.196Z,78.07
2019-03-29T05:37:02.145Z,78.20
2019-03-29T05:38:02.142Z,78.15
2019-03-29T05:39:02.161Z,78.23
2019-03-29T05:40:02.122Z,78.14
2019-03-29T05:41:02.121Z,78.13
2019-03-29T05:42:02.150Z,78.16
2019-03-29T05:43:02.139Z,78.12
2019-03-29T05:44:02.133Z,78.14
2019-03-29T05:45:02.159Z,78.13
2019-03-29T05:46:02.110Z,78.16
2019-03-29T05:47:02.145Z,78.20
2019-03-29T05:48:02.160Z,78.19
2019-03-29T05:49:02.148Z,78.11
2019-03-29T05:50:02.138Z,78.19
2019-03-29T05:51:02.142Z,78.10
2019-03-29T05:52:02.121Z,78.14
2019-03-29T05:53:02.173Z,78.24
2019-03-29T05:54:02.159Z,78.12
2019-03-29T05:55:02.162Z,78.12
2019-03-29T05:56:02.147Z,78.24
2019-03-29T05:57:02.194Z,78.10
2019-03-29T05:58:02.122Z,78.20
2019-03-29T05:59:02.152Z,78.12
2019-03-29T06:00:02.147Z,78.28
2019-03-29T06:01:02.143Z,78.05
2019-03-29T06:02:02.145Z,78.08
2019-03-29T06:03:02.176Z,78.27
2019-03-29T06:04:02.141Z,78.11
2019-03-29T06:05:02.154Z,78.23
2019-03-29T06:06:02.143Z,78.30
2019-03-29T06:07:02.161Z,78.26
2019-03-29T06:08:02.148Z,78.13
2019-03-29T06:09:02.183Z,78.35
2019-03-29T06:10:02.122Z,78.14
2019-03-29T06:11:02.212Z,78.17
2019-03-29T06:12:02.174Z,78.38
2019-03-29T06:13:02.143Z,78.30
2019-03-29T06:14:02.166Z,78.30
2019-03-29T06:15:02.164Z,78.37
2019-03-29T06:16:02.140Z,78.12
2019-03-29T06:17:02.143Z,78.25
2019-03-29T06:18:02.231Z,78.18
2019-03-29T06:19:02.134Z,78.26
2019-03-29T06:20:02.194Z,78.20
2019-03-29T06:21:02.183Z,78.08
2019-03-29T06:22:02.211Z,78.08
2019-03-29T06:23:02.181Z,77.81
2019-03-29T06:24:02.185Z,77.75
2019-03-29T06:25:02.153Z,77.65
2019-03-29T06:26:02.182Z,77.46
2019-03-29T06:27:02.174Z,77.38
2019-03-29T06:28:02.153Z,77.62
2019-03-29T06:29:02.176Z,77.45
2019-03-29T06:30:02.192Z,77.31
2019-03-29T06:31:02.151Z,77.00
2019-03-29T06:32:02.157Z,77.11
2019-03-29T06:33:02.191Z,77.23
2019-03-29T06:34:02.179Z,77.10
2019-03-29T06:35:02.213Z,76.79
2019-03-29T06:36:02.265Z,76.52
2019-03-29T06:37:02.174Z,76.49
2019-03-29T06:38:02.161Z,76.62
2019-03-29T06:39:02.181Z,75.91
2019-03-29T06:40:02.157Z,75.12
2019-03-29T06:41:03.470Z,75.09
2019-03-29T06:42:02.201Z,74.60
2019-03-29T06:43:02.173Z,74.07
2019-03-29T06:44:02.180Z,73.92
2019-03-29T06:45:02.192Z,73.27
2019-03-29T06:46:02.154Z,72.62
2019-03-29T06:47:02.206Z,70.76
2019-03-29T06:48:02.177Z,68.02
2019-03-29T06:49:02.168Z,66.11
2019-03-29T06:50:02.176Z,64.68
2019-03-29T06:51:02.223Z,61.81
2019-03-29T06:52:02.186Z,61.45
2019-03-29T06:53:02.194Z,61.00
2019-03-29T06:54:02.193Z,60.41
2019-03-29T06:55:02.155Z,59.36
2019-03-29T06:56:02.179Z,58.73
2019-03-29T06:57:02.189Z,57.81
2019-03-29T06:58:02.175Z,55.65
2019-03-29T06:59:02.240Z,54.61
2019-03-29T07:00:02.212Z,54.32
2019-03-29T07:01:02.158Z,55.11
2019-03-29T07:02:02.173Z,53.55
2019-03-29T07:03:02.204Z,52.75
2019-03-29T07:04:02.204Z,50.42
2019-03-29T07:05:02.237Z,49.41
2019-03-29T07:06:02.214Z,49.28
2019-03-29T07:07:02.177Z,49.89
2019-03-29T07:08:02.196Z,50.40
2019-03-29T07:09:02.206Z,50.24
2019-03-29T07:10:02.171Z,50.05
2019-03-29T07:11:16.249Z,49.19
2019-03-29T07:12:02.192Z,48.17
2019-03-29T07:13:02.187Z,49.75
2019-03-29T07:14:02.164Z,51.04
2019-03-29T07:15:02.209Z,52.27
2019-03-29T07:16:02.200Z,53.23
2019-03-29T07:17:02.172Z,52.27
2019-03-29T07:18:02.218Z,52.98
2019-03-29T07:19:04.835Z,53.53
2019-03-29T07:20:02.230Z,54.40
2019-03-29T07:21:02.212Z,53.98
2019-03-29T07:22:02.179Z,52.62
2019-03-29T07:23:02.184Z,54.81
2019-03-29T07:24:02.234Z,54.04
2019-03-29T07:25:02.210Z,54.07
2019-03-29T07:26:02.204Z,52.41
2019-03-29T07:27:02.302Z,51.82
2019-03-29T07:28:02.217Z,50.74
2019-03-29T07:29:02.239Z,50.29
2019-03-29T07:30:02.237Z,51.25
2019-03-29T07:31:02.171Z,51.74
2019-03-29T07:32:02.222Z,51.82
2019-03-29T07:33:02.236Z,50.08
2019-03-29T07:34:02.186Z,48.08
2019-03-29T07:35:02.225Z,47.17
2019-03-29T07:36:02.214Z,47.26
2019-03-29T07:37:05.567Z,49.19
2019-03-29T07:38:02.292Z,50.56
2019-03-29T07:39:02.288Z,50.16
2019-03-29T07:40:02.173Z,48.84
2019-03-29T07:41:02.224Z,45.75
2019-03-29T07:42:02.226Z,49.06
2019-03-29T07:43:02.186Z,49.61
2019-03-29T07:44:02.237Z,52.69
2019-03-29T07:45:02.233Z,53.46
2019-03-29T07:46:02.184Z,50.78
2019-03-29T07:47:02.203Z,53.44
2019-03-29T07:48:02.227Z,51.99
2019-03-29T07:49:02.211Z,50.93
2019-03-29T07:50:02.227Z,51.89
2019-03-29T07:51:02.309Z,49.36
2019-03-29T07:52:02.188Z,49.18
2019-03-29T07:53:02.224Z,50.36
2019-03-29T07:54:02.222Z,48.13
2019-03-29T07:55:02.199Z,47.89
2019-03-29T07:56:02.256Z,48.47
2019-03-29T07:57:02.232Z,47.78
2019-03-29T07:58:02.221Z,48.18
2019-03-29T07:59:02.248Z,48.16
2019-03-29T08:00:02.248Z,48.24
2019-03-29T08:01:02.194Z,50.69
2019-03-29T08:02:02.455Z,50.98
2019-03-29T08:03:02.308Z,50.44
2019-03-29T08:04:02.238Z,50.30
2019-03-29T08:05:02.242Z,50.96
2019-03-29T08:06:02.298Z,51.78
2019-03-29T08:07:02.224Z,51.77
2019-03-29T08:08:02.233Z,49.91
2019-03-29T08:09:02.273Z,48.92
2019-03-29T08:10:04.096Z,49.03
2019-03-29T08:11:02.235Z,46.72
2019-03-29T08:12:02.258Z,45.88
2019-03-29T08:13:02.200Z,45.40
2019-03-29T08:14:02.270Z,47.77
2019-03-29T08:15:02.269Z,47.52
2019-03-29T08:16:02.218Z,47.87
2019-03-29T08:17:02.247Z,49.44
2019-03-29T08:18:02.255Z,48.94
2019-03-29T08:19:02.210Z,49.75
2019-03-29T08:20:36.502Z,50.62
2019-03-29T08:21:02.260Z,50.10
2019-03-29T08:22:02.235Z,49.72
2019-03-29T08:23:02.271Z,50.27
2019-03-29T08:24:02.309Z,49.64
2019-03-29T08:25:02.236Z,49.97
2019-03-29T08:26:02.247Z,50.20
2019-03-29T08:27:02.242Z,50.71
2019-03-29T08:28:02.207Z,49.59
2019-03-29T08:29:02.256Z,48.46
2019-03-29T08:30:02.277Z,47.89
2019-03-29T08:31:02.244Z,48.25
2019-03-29T08:32:02.276Z,47.71
2019-03-29T08:33:02.262Z,48.71
2019-03-29T08:34:02.241Z,48.91
2019-03-29T08:35:02.271Z,48.90
2019-03-29T08:36:02.283Z,49.15
2019-03-29T08:37:02.263Z,49.37
2019-03-29T08:38:05.867Z,49.25
2019-03-29T08:39:02.255Z,49.62
2019-03-29T08:40:02.264Z,49.83
2019-03-29T08:41:02.286Z,49.83
2019-03-29T08:42:02.298Z,49.28
2019-03-29T08:43:02.322Z,47.78
2019-03-29T08:44:02.261Z,46.90
2019-03-29T08:45:02.307Z,44.69
2019-03-29T08:46:02.231Z,44.91
2019-03-29T08:47:02.263Z,46.55
2019-03-29T08:48:02.474Z,46.75
2019-03-29T08:49:02.251Z,45.00
2019-03-29T08:50:02.297Z,43.74
2019-03-29T08:51:02.267Z,44.28
2019-03-29T08:52:02.227Z,44.85
2019-03-29T08:53:02.278Z,45.32
2019-03-29T08:54:02.300Z,45.84
2019-03-29T08:55:02.303Z,46.26
2019-03-29T08:56:02.298Z,46.98
2019-03-29T08:57:02.263Z,47.86
2019-03-29T08:58:02.284Z,44.34
2019-03-29T08:59:02.272Z,44.66
2019-03-29T09:00:02.280Z,43.85
2019-03-29T09:01:02.242Z,44.92
2019-03-29T09:02:02.262Z,45.19
2019-03-29T09:03:02.273Z,46.26
2019-03-29T09:04:05.641Z,46.62
2019-03-29T09:05:02.276Z,45.87
2019-03-29T09:06:02.286Z,47.67
2019-03-29T09:07:02.287Z,45.84
2019-03-29T09:08:02.270Z,41.08
2019-03-29T09:09:02.286Z,42.45
2019-03-29T09:10:02.251Z,43.16
2019-03-29T09:11:02.291Z,43.80
2019-03-29T09:12:13.785Z,44.97
2019-03-29T09:13:04.415Z,45.19
2019-03-29T09:14:02.318Z,43.46
2019-03-29T09:15:04.104Z,43.21
2019-03-29T09:16:02.274Z,42.84
2019-03-29T09:17:02.310Z,43.30
2019-03-29T09:18:02.354Z,42.68
2019-03-29T09:19:02.271Z,41.51
2019-03-29T09:20:02.270Z,40.22
2019-03-29T09:21:02.296Z,38.65
2019-03-29T09:22:02.264Z,38.73
2019-03-29T09:23:02.279Z,39.05
2019-03-29T09:24:02.285Z,36.34
2019-03-29T09:25:02.267Z,38.00
2019-03-29T09:26:02.300Z,37.53
2019-03-29T09:27:02.315Z,37.83
2019-03-29T09:28:02.258Z,38.37
2019-03-29T09:29:02.316Z,40.65
2019-03-29T09:30:04.978Z,40.64
2019-03-29T09:31:02.277Z,41.96
2019-03-29T09:32:02.317Z,40.03
2019-03-29T09:33:02.286Z,39.58
2019-03-29T09:34:02.257Z,40.25
2019-03-29T09:35:02.310Z,41.41
2019-03-29T09:36:05.020Z,40.99
2019-03-29T09:37:02.298Z,38.25
2019-03-29T09:38:02.319Z,39.92
2019-03-29T09:39:02.351Z,40.37
2019-03-29T09:40:02.313Z,40.78
2019-03-29T09:41:02.357Z,41.64
2019-03-29T09:42:02.364Z,41.33
2019-03-29T09:43:08.019Z,41.24
2019-03-29T09:44:02.356Z,40.88
2019-03-29T09:45:02.409Z,41.58
2019-03-29T09:46:03.426Z,41.46
2019-03-29T09:47:02.410Z,40.43
2019-03-29T09:48:02.440Z,40.49
2019-03-29T09:49:02.366Z,40.59
2019-03-29T09:50:02.372Z,40.13
2019-03-29T09:51:02.384Z,40.37
2019-03-29T09:52:02.368Z,40.90
2019-03-29T09:53:02.386Z,40.40
2019-03-29T09:54:02.405Z,40.61
2019-03-29T09:55:02.388Z,40.60
2019-03-29T09:56:02.381Z,41.19
2019-03-29T09:57:02.390Z,41.21
2019-03-29T09:58:02.368Z,40.93
2019-03-29T09:59:02.394Z,40.02
2019-03-29T10:00:02.367Z,40.31
2019-03-29T10:01:02.370Z,41.13
2019-03-29T10:02:02.398Z,41.09
2019-03-29T10:03:02.396Z,41.46
2019-03-29T10:04:02.379Z,39.94
2019-03-29T10:05:02.420Z,40.92
2019-03-29T10:06:02.396Z,39.64
2019-03-29T10:07:02.336Z,40.10
2019-03-29T10:08:02.376Z,40.10
2019-03-29T10:09:02.411Z,40.77
2019-03-29T10:10:02.511Z,40.52
2019-03-29T10:11:02.387Z,40.87
2019-03-29T10:12:02.407Z,39.99
2019-03-29T10:13:02.345Z,40.01
2019-03-29T10:14:02.386Z,39.68
2019-03-29T10:15:02.435Z,39.52
2019-03-29T10:16:02.425Z,39.84
2019-03-29T10:17:02.407Z,39.67
2019-03-29T10:18:02.456Z,39.47
2019-03-29T10:19:02.359Z,41.15
2019-03-29T10:20:02.436Z,40.48
2019-03-29T10:21:02.448Z,40.90
2019-03-29T10:22:02.401Z,38.86
2019-03-29T10:23:02.410Z,39.53
2019-03-29T10:24:02.413Z,39.25
2019-03-29T10:25:02.802Z,39.65
2019-03-29T10:26:02.398Z,39.97
2019-03-29T10:27:02.462Z,39.30
2019-03-29T10:28:02.423Z,39.77
2019-03-29T10:29:02.413Z,40.14
2019-03-29T10:30:02.439Z,38.79
2019-03-29T10:31:02.412Z,40.31
2019-03-29T10:32:05.483Z,38.62
2019-03-29T10:33:02.447Z,39.44
2019-03-29T10:34:02.404Z,38.70
2019-03-29T10:35:02.428Z,37.07
2019-03-29T10:36:02.449Z,38.22
2019-03-29T10:37:02.421Z,36.25
2019-03-29T10:38:02.441Z,37.63
2019-03-29T10:39:02.423Z,37.76
2019-03-29T10:40:02.390Z,37.27
2019-03-29T10:41:02.423Z,37.83
2019-03-29T10:42:02.402Z,37.64
2019-03-29T10:43:02.397Z,38.04
2019-03-29T10:44:02.434Z,36.40
2019-03-29T10:45:02.430Z,34.84
2019-03-29T10:46:02.410Z,35.13
2019-03-29T10:47:02.435Z,36.12
2019-03-29T10:48:02.439Z,35.08
2019-03-29T10:49:02.423Z,34.77
2019-03-29T10:50:02.452Z,35.12
2019-03-29T10:51:02.440Z,35.63
2019-03-29T10:52:02.422Z,34.68
2019-03-29T10:53:02.449Z,33.40
2019-03-29T10:54:02.461Z,33.78
2019-03-29T10:55:02.421Z,33.02
2019-03-29T10:56:02.458Z,33.84
2019-03-29T10:57:02.433Z,34.26
2019-03-29T10:58:02.411Z,34.93
2019-03-29T10:59:02.430Z,35.71
2019-03-29T11:00:02.429Z,35.76
2019-03-29T11:01:02.446Z,36.44
2019-03-29T11:02:02.429Z,35.78
2019-03-29T11:03:02.468Z,35.68
2019-03-29T11:04:02.435Z,35.13
2019-03-29T11:05:02.446Z,35.65
2019-03-29T11:06:02.495Z,34.36
2019-03-29T11:07:02.410Z,34.43
2019-03-29T11:08:02.466Z,35.65
2019-03-29T11:09:02.449Z,35.31
2019-03-29T11:10:02.397Z,36.44
2019-03-29T11:11:02.443Z,35.65
2019-03-29T11:12:02.457Z,34.21
2019-03-29T11:13:12.607Z,34.84
2019-03-29T11:14:02.442Z,33.55
2019-03-29T11:15:02.441Z,32.52
2019-03-29T11:16:02.420Z,31.83
2019-03-29T11:17:02.465Z,31.44
2019-03-29T11:18:02.500Z,30.17
2019-03-29T11:19:02.408Z,32.38
2019-03-29T11:20:02.463Z,31.97
2019-03-29T11:21:02.451Z,29.02
2019-03-29T11:22:02.438Z,29.97
2019-03-29T11:23:02.459Z,28.11
2019-03-29T11:24:02.497Z,27.76
2019-03-29T11:25:02.437Z,28.36
2019-03-29T11:26:02.480Z,29.39
2019-03-29T11:27:02.451Z,31.61
2019-03-29T11:28:02.439Z,33.36
2019-03-29T11:29:02.458Z,31.82
2019-03-29T11:30:02.479Z,31.99
2019-03-29T11:31:02.471Z,31.63
2019-03-29T11:32:02.442Z,30.93
2019-03-29T11:33:02.472Z,31.14
2019-03-29T11:34:02.450Z,31.18
2019-03-29T11:35:02.440Z,30.02
2019-03-29T11:36:02.543Z,30.83
2019-03-29T11:37:02.471Z,31.14
2019-03-29T11:38:02.441Z,29.57
2019-03-29T11:39:02.484Z,29.21
2019-03-29T11:40:02.456Z,28.10
2019-03-29T11:41:02.471Z,29.10
2019-03-29T11:42:03.699Z,29.60
2019-03-29T11:43:02.476Z,30.40
2019-03-29T11:44:02.497Z,30.64
2019-03-29T11:45:02.531Z,31.42
2019-03-29T11:46:02.426Z,33.82
2019-03-29T11:47:02.491Z,31.47
2019-03-29T11:48:08.898Z,30.87
2019-03-29T11:49:02.437Z,28.83
2019-03-29T11:50:02.495Z,28.73
2019-03-29T11:51:02.480Z,27.85
2019-03-29T11:52:02.492Z,26.94
2019-03-29T11:53:02.485Z,27.74
2019-03-29T11:54:02.512Z,27.35
2019-03-29T11:55:02.449Z,26.81
2019-03-29T11:56:02.519Z,29.19
2019-03-29T11:57:02.476Z,26.52
2019-03-29T11:58:02.455Z,27.29
2019-03-29T11:59:02.506Z,25.52
2019-03-29T12:00:02.512Z,26.55
2019-03-29T12:01:05.393Z,26.10
2019-03-29T12:02:02.517Z,27.32
2019-03-29T12:03:02.504Z,26.69
2019-03-29T12:04:02.480Z,26.78
2019-03-29T12:05:02.510Z,25.98
2019-03-29T12:06:02.521Z,26.55
2019-03-29T12:07:03.659Z,26.17
2019-03-29T12:08:02.492Z,27.03
2019-03-29T12:09:02.502Z,28.36
2019-03-29T12:10:02.450Z,29.81
2019-03-29T12:11:02.528Z,27.53
2019-03-29T12:12:02.588Z,26.61
2019-03-29T12:13:02.468Z,26.59
2019-03-29T12:14:04.958Z,26.00
2019-03-29T12:15:02.545Z,26.70
2019-03-29T12:16:02.462Z,27.41
2019-03-29T12:17:02.519Z,27.76
2019-03-29T12:18:02.536Z,29.04
2019-03-29T12:19:02.493Z,29.21
2019-03-29T12:20:02.501Z,29.61
2019-03-29T12:21:02.506Z,29.60
2019-03-29T12:22:02.492Z,29.31
2019-03-29T12:23:02.548Z,31.57
2019-03-29T12:24:02.540Z,32.28
2019-03-29T12:25:02.469Z,30.73
2019-03-29T12:26:02.529Z,28.95
2019-03-29T12:27:02.517Z,28.22
2019-03-29T12:28:02.483Z,26.84
2019-03-29T12:29:02.519Z,27.80
2019-03-29T12:30:02.575Z,27.03
2019-03-29T12:31:02.493Z,27.26
2019-03-29T12:32:02.513Z,27.22
2019-03-29T12:33:02.525Z,27.19
2019-03-29T12:34:02.490Z,26.58
2019-03-29T12:35:02.506Z,28.62
2019-03-29T12:36:02.559Z,28.53
2019-03-29T12:37:02.513Z,28.27
2019-03-29T12:38:02.524Z,26.81
2019-03-29T12:39:02.552Z,27.68
2019-03-29T12:40:02.505Z,28.73
2019-03-29T12:41:02.552Z,28.29
2019-03-29T12:42:02.535Z,28.89
2019-03-29T12:43:02.521Z,27.60
2019-03-29T12:44:02.578Z,27.10
2019-03-29T12:45:02.627Z,27.85
2019-03-29T12:46:02.570Z,26.78
2019-03-29T12:47:02.633Z,26.65
2019-03-29T12:48:02.611Z,25.33
2019-03-29T12:49:02.575Z,25.74
2019-03-29T12:50:02.669Z,25.40
2019-03-29T12:51:02.643Z,25.94
2019-03-29T12:52:02.682Z,26.84